sensor_id;sensor_type;location;lat;lon;timestamp;pressure;altitude;pressure_sealevel;temperature;humidity
75697;BME280;64312;44.738;20.612;2022-11-03T00:01:49;101202.66;;;12.11;79.39
75697;BME280;64312;44.738;20.612;2022-11-03T00:04:17;101195.09;;;12.07;79.50
75697;BME280;64312;44.738;20.612;2022-11-03T00:06:46;101202.81;;;12.10;79.36
75697;BME280;64312;44.738;20.612;2022-11-03T00:09:14;101197.41;;;12.10;79.74
75697;BME280;64312;44.738;20.612;2022-11-03T00:11:42;101202.47;;;12.13;79.37
75697;BME280;64312;44.738;20.612;2022-11-03T00:14:08;101200.13;;;12.10;79.22
75697;BME280;64312;44.738;20.612;2022-11-03T00:16:35;101206.00;;;12.13;79.22
75697;BME280;64312;44.738;20.612;2022-11-03T00:19:01;101204.16;;;12.14;80.02
75697;BME280;64312;44.738;20.612;2022-11-03T00:21:28;101205.81;;;12.15;79.65
75697;BME280;64312;44.738;20.612;2022-11-03T00:23:54;101204.97;;;12.14;79.50
75697;BME280;64312;44.738;20.612;2022-11-03T00:26:25;101199.59;;;12.14;79.39
75697;BME280;64312;44.738;20.612;2022-11-03T00:28:53;101205.81;;;12.15;79.66
75697;BME280;64312;44.738;20.612;2022-11-03T00:33:46;101197.53;;;12.16;79.57
75697;BME280;64312;44.738;20.612;2022-11-03T00:36:16;101197.53;;;12.16;79.45
75697;BME280;64312;44.738;20.612;2022-11-03T00:38:43;101195.66;;;12.17;79.56
75697;BME280;64312;44.738;20.612;2022-11-03T00:41:12;101192.97;;;12.17;79.59
75697;BME280;64312;44.738;20.612;2022-11-03T00:43:39;101191.97;;;12.18;79.38
75697;BME280;64312;44.738;20.612;2022-11-03T00:46:06;101192.81;;;12.18;79.83
75697;BME280;64312;44.738;20.612;2022-11-03T00:48:33;101191.78;;;12.19;79.57
75697;BME280;64312;44.738;20.612;2022-11-03T00:51:23;101188.44;;;12.17;79.67
75697;BME280;64312;44.738;20.612;2022-11-03T00:53:52;101181.72;;;12.13;79.46
75697;BME280;64312;44.738;20.612;2022-11-03T00:58:48;101184.88;;;12.17;80.01
75697;BME280;64312;44.738;20.612;2022-11-03T01:01:16;101186.19;;;12.21;79.85
75697;BME280;64312;44.738;20.612;2022-11-03T01:03:44;101190.56;;;12.22;79.80
75697;BME280;64312;44.738;20.612;2022-11-03T01:06:30;101173.09;;;12.18;79.99
75697;BME280;64312;44.738;20.612;2022-11-03T01:11:58;101173.53;;;12.22;79.65
75697;BME280;64312;44.738;20.612;2022-11-03T01:14:30;101172.69;;;12.21;79.77
75697;BME280;64312;44.738;20.612;2022-11-03T01:16:57;101173.72;;;12.20;79.98
75697;BME280;64312;44.738;20.612;2022-11-03T01:19:23;101171.88;;;12.20;80.01
75697;BME280;64312;44.738;20.612;2022-11-03T01:21:51;101158.56;;;12.19;79.63
75697;BME280;64312;44.738;20.612;2022-11-03T01:24:17;101161.06;;;12.20;79.64
75697;BME280;64312;44.738;20.612;2022-11-03T01:26:43;101165.63;;;12.20;79.69
75697;BME280;64312;44.738;20.612;2022-11-03T01:29:08;101154.00;;;12.19;79.54
75697;BME280;64312;44.738;20.612;2022-11-03T01:31:34;101153.16;;;12.19;79.57
75697;BME280;64312;44.738;20.612;2022-11-03T01:34:00;101153.16;;;12.19;79.83
75697;BME280;64312;44.738;20.612;2022-11-03T01:36:26;101146.09;;;12.18;79.76
75697;BME280;64312;44.738;20.612;2022-11-03T01:38:53;101140.69;;;12.18;79.71
75697;BME280;64312;44.738;20.612;2022-11-03T01:41:24;101136.13;;;12.18;79.60
75697;BME280;64312;44.738;20.612;2022-11-03T01:44:22;101130.06;;;12.16;79.53
75697;BME280;64312;44.738;20.612;2022-11-03T01:49:49;101121.13;;;12.16;79.75
75697;BME280;64312;44.738;20.612;2022-11-03T01:55:06;101120.66;;;12.12;79.96
75697;BME280;64312;44.738;20.612;2022-11-03T01:57:37;101117.13;;;12.12;79.58
75697;BME280;64312;44.738;20.612;2022-11-03T02:00:06;101114.44;;;12.12;79.55
75697;BME280;64312;44.738;20.612;2022-11-03T02:02:38;101110.06;;;12.11;79.88
75697;BME280;64312;44.738;20.612;2022-11-03T02:05:06;101111.03;;;12.10;79.11
75697;BME280;64312;44.738;20.612;2022-11-03T02:07:37;101119.16;;;12.10;79.87
75697;BME280;64312;44.738;20.612;2022-11-03T02:10:05;101119.53;;;12.07;79.79
75697;BME280;64312;44.738;20.612;2022-11-03T02:12:31;101132.00;;;12.08;79.62
75697;BME280;64312;44.738;20.612;2022-11-03T02:15:03;101144.00;;;12.05;79.26
75697;BME280;64312;44.738;20.612;2022-11-03T02:17:31;101138.84;;;11.96;79.50
75697;BME280;64312;44.738;20.612;2022-11-03T02:20:04;101146.28;;;11.93;79.72
75697;BME280;64312;44.738;20.612;2022-11-03T02:28:03;101144.75;;;11.91;79.71
75697;BME280;64312;44.738;20.612;2022-11-03T02:30:34;101136.84;;;11.89;79.79
75697;BME280;64312;44.738;20.612;2022-11-03T02:33:14;101122.72;;;11.87;79.53
75697;BME280;64312;44.738;20.612;2022-11-03T02:35:51;101129.59;;;11.90;79.93
75697;BME280;64312;44.738;20.612;2022-11-03T02:38:19;101124.78;;;11.85;79.76
75697;BME280;64312;44.738;20.612;2022-11-03T02:40:52;101129.78;;;11.88;79.69
75697;BME280;64312;44.738;20.612;2022-11-03T02:43:20;101136.41;;;11.86;79.81
75697;BME280;64312;44.738;20.612;2022-11-03T02:45:48;101134.88;;;11.83;80.04
75697;BME280;64312;44.738;20.612;2022-11-03T02:48:16;101142.13;;;11.83;79.83
75697;BME280;64312;44.738;20.612;2022-11-03T02:50:43;101138.59;;;11.82;79.82
75697;BME280;64312;44.738;20.612;2022-11-03T02:53:13;101140.47;;;11.82;79.88
75697;BME280;64312;44.738;20.612;2022-11-03T02:55:57;101141.97;;;11.76;79.67
75697;BME280;64312;44.738;20.612;2022-11-03T03:01:25;101143.66;;;11.77;79.73
75697;BME280;64312;44.738;20.612;2022-11-03T03:03:59;101122.69;;;11.64;80.00
75697;BME280;64312;44.738;20.612;2022-11-03T03:06:45;101147.56;;;11.75;79.59
75697;BME280;64312;44.738;20.612;2022-11-03T03:09:21;101144.22;;;11.73;79.34
75697;BME280;64312;44.738;20.612;2022-11-03T03:11:50;101147.44;;;11.68;79.64
75697;BME280;64312;44.738;20.612;2022-11-03T03:14:21;101148.63;;;11.65;79.64
75697;BME280;64312;44.738;20.612;2022-11-03T03:21:56;101152.34;;;11.64;79.89
75697;BME280;64312;44.738;20.612;2022-11-03T03:27:23;101161.63;;;11.62;79.50
75697;BME280;64312;44.738;20.612;2022-11-03T03:29:52;101157.75;;;11.64;79.70
75697;BME280;64312;44.738;20.612;2022-11-03T03:32:21;101157.59;;;11.66;79.71
75697;BME280;64312;44.738;20.612;2022-11-03T03:34:49;101161.97;;;11.67;79.86
75697;BME280;64312;44.738;20.612;2022-11-03T03:37:16;101154.03;;;11.65;79.83
75697;BME280;64312;44.738;20.612;2022-11-03T03:39:48;101165.00;;;11.64;79.90
75697;BME280;64312;44.738;20.612;2022-11-03T03:42:16;101164.34;;;11.62;80.06
75697;BME280;64312;44.738;20.612;2022-11-03T03:44:45;101170.25;;;11.57;79.77
75697;BME280;64312;44.738;20.612;2022-11-03T03:47:26;101159.34;;;11.51;79.79
75697;BME280;64312;44.738;20.612;2022-11-03T03:49:53;101159.22;;;11.44;80.13
75697;BME280;64312;44.738;20.612;2022-11-03T03:52:19;101170.50;;;11.48;80.70
75697;BME280;64312;44.738;20.612;2022-11-03T03:54:45;101160.38;;;11.50;80.39
75697;BME280;64312;44.738;20.612;2022-11-03T03:57:16;101161.00;;;11.52;80.39
75697;BME280;64312;44.738;20.612;2022-11-03T03:59:43;101169.09;;;11.52;80.27
75697;BME280;64312;44.738;20.612;2022-11-03T04:02:10;101178.91;;;11.53;80.13
75697;BME280;64312;44.738;20.612;2022-11-03T04:04:36;101184.75;;;11.56;80.32
75697;BME280;64312;44.738;20.612;2022-11-03T04:07:02;101172.94;;;11.57;80.59
75697;BME280;64312;44.738;20.612;2022-11-03T04:09:47;101170.25;;;11.57;80.14
75697;BME280;64312;44.738;20.612;2022-11-03T04:12:12;101169.09;;;11.60;80.18
75697;BME280;64312;44.738;20.612;2022-11-03T04:14:57;101171.78;;;11.60;80.45
75697;BME280;64312;44.738;20.612;2022-11-03T04:17:43;101165.81;;;11.64;80.07
75697;BME280;64312;44.738;20.612;2022-11-03T04:20:29;101165.66;;;11.66;80.29
75697;BME280;64312;44.738;20.612;2022-11-03T04:23:14;101160.28;;;11.66;80.46
75697;BME280;64312;44.738;20.612;2022-11-03T04:25:41;101154.88;;;11.66;80.45
75697;BME280;64312;44.738;20.612;2022-11-03T04:28:12;101153.88;;;11.67;80.44
75697;BME280;64312;44.738;20.612;2022-11-03T04:30:38;101155.16;;;11.71;80.47
75697;BME280;64312;44.738;20.612;2022-11-03T04:33:09;101150.59;;;11.72;80.23
75697;BME280;64312;44.738;20.612;2022-11-03T04:35:36;101146.41;;;11.69;80.02
75697;BME280;64312;44.738;20.612;2022-11-03T04:38:07;101149.44;;;11.74;80.09
75697;BME280;64312;44.738;20.612;2022-11-03T04:40:48;101144.03;;;11.74;79.96
75697;BME280;64312;44.738;20.612;2022-11-03T04:43:16;101141.97;;;11.76;80.25
75697;BME280;64312;44.738;20.612;2022-11-03T04:45:44;101141.78;;;11.78;79.98
75697;BME280;64312;44.738;20.612;2022-11-03T04:48:18;101142.63;;;11.78;80.17
75697;BME280;64312;44.738;20.612;2022-11-03T04:50:46;101140.81;;;11.79;79.84
75697;BME280;64312;44.738;20.612;2022-11-03T04:53:16;101147.03;;;11.79;80.13
75697;BME280;64312;44.738;20.612;2022-11-03T04:55:43;101132.75;;;11.71;80.33
75697;BME280;64312;44.738;20.612;2022-11-03T05:00:53;101138.25;;;11.77;80.13
75697;BME280;64312;44.738;20.612;2022-11-03T05:03:33;101143.16;;;11.82;80.20
75697;BME280;64312;44.738;20.612;2022-11-03T05:06:19;101143.16;;;11.82;80.27
75697;BME280;64312;44.738;20.612;2022-11-03T05:08:57;101148.38;;;11.83;80.21
75697;BME280;64312;44.738;20.612;2022-11-03T05:11:34;101137.75;;;11.82;80.16
75697;BME280;64312;44.738;20.612;2022-11-03T05:14:23;101149.06;;;11.85;79.93
75697;BME280;64312;44.738;20.612;2022-11-03T05:16:50;101145.47;;;11.85;80.33
75697;BME280;64312;44.738;20.612;2022-11-03T05:19:29;101141.13;;;11.84;79.85
75697;BME280;64312;44.738;20.612;2022-11-03T05:21:57;101139.44;;;11.83;79.98
75697;BME280;64312;44.738;20.612;2022-11-03T05:24:24;101142.13;;;11.83;79.91
75697;BME280;64312;44.738;20.612;2022-11-03T05:26:51;101135.06;;;11.82;80.32
75697;BME280;64312;44.738;20.612;2022-11-03T05:29:22;101134.69;;;11.85;80.19
75697;BME280;64312;44.738;20.612;2022-11-03T05:31:51;101134.03;;;11.83;80.23
75697;BME280;64312;44.738;20.612;2022-11-03T05:36:59;101137.06;;;11.88;80.10
75697;BME280;64312;44.738;20.612;2022-11-03T05:39:32;101137.06;;;11.88;80.52
75697;BME280;64312;44.738;20.612;2022-11-03T05:42:00;101152.22;;;11.89;80.25
75697;BME280;64312;44.738;20.612;2022-11-03T05:44:38;101153.88;;;11.90;80.17
75697;BME280;64312;44.738;20.612;2022-11-03T05:47:21;101149.16;;;11.92;79.91
75697;BME280;64312;44.738;20.612;2022-11-03T05:49:49;101152.31;;;11.96;80.30
75697;BME280;64312;44.738;20.612;2022-11-03T05:52:21;101161.25;;;11.96;80.13
75697;BME280;64312;44.738;20.612;2022-11-03T05:54:49;101160.22;;;11.97;80.42
75697;BME280;64312;44.738;20.612;2022-11-03T05:57:15;101149.28;;;11.99;80.40
75697;BME280;64312;44.738;20.612;2022-11-03T05:59:45;101141.34;;;11.97;80.18
75697;BME280;64312;44.738;20.612;2022-11-03T06:02:38;101156.16;;;12.01;80.57
75697;BME280;64312;44.738;20.612;2022-11-03T06:05:21;101152.81;;;11.99;80.09
75697;BME280;64312;44.738;20.612;2022-11-03T06:07:48;101163.06;;;12.04;80.07
75697;BME280;64312;44.738;20.612;2022-11-03T06:10:30;101166.44;;;12.06;80.47
75697;BME280;64312;44.738;20.612;2022-11-03T06:13:18;101156.16;;;12.01;80.24
75697;BME280;64312;44.738;20.612;2022-11-03T06:15:45;101169.44;;;12.11;80.49
75697;BME280;64312;44.738;20.612;2022-11-03T06:18:14;101167.38;;;12.13;80.28
75697;BME280;64312;44.738;20.612;2022-11-03T06:20:45;101167.19;;;12.14;80.12
75697;BME280;64312;44.738;20.612;2022-11-03T06:23:14;101167.00;;;12.16;80.29
75697;BME280;64312;44.738;20.612;2022-11-03T06:25:41;101167.69;;;12.18;80.06
75697;BME280;64312;44.738;20.612;2022-11-03T06:28:35;101164.59;;;12.21;80.12
75697;BME280;64312;44.738;20.612;2022-11-03T06:30:59;101159.84;;;12.23;80.15
75697;BME280;64312;44.738;20.612;2022-11-03T06:33:27;101160.34;;;12.27;79.82
75697;BME280;64312;44.738;20.612;2022-11-03T06:36:23;101164.53;;;12.29;80.12
75697;BME280;64312;44.738;20.612;2022-11-03T06:39:21;101165.22;;;12.31;79.90
75697;BME280;64312;44.738;20.612;2022-11-03T06:41:52;101167.53;;;12.34;79.94
75697;BME280;64312;44.738;20.612;2022-11-03T06:44:22;101170.88;;;12.36;79.58
75697;BME280;64312;44.738;20.612;2022-11-03T06:46:55;101168.84;;;12.38;79.46
75697;BME280;64312;44.738;20.612;2022-11-03T06:49:24;101176.41;;;12.43;79.77
75697;BME280;64312;44.738;20.612;2022-11-03T06:51:51;101169.16;;;12.43;79.58
75697;BME280;64312;44.738;20.612;2022-11-03T06:54:17;101172.50;;;12.45;79.58
75697;BME280;64312;44.738;20.612;2022-11-03T06:56:42;101166.06;;;12.46;79.31
75697;BME280;64312;44.738;20.612;2022-11-03T06:59:09;101181.06;;;12.49;79.88
75697;BME280;64312;44.738;20.612;2022-11-03T07:01:38;101177.34;;;12.50;79.91
75697;BME280;64312;44.738;20.612;2022-11-03T07:04:14;101172.13;;;12.48;79.48
75697;BME280;64312;44.738;20.612;2022-11-03T07:06:42;101172.41;;;12.54;79.51
75697;BME280;64312;44.738;20.612;2022-11-03T07:09:14;101181.16;;;12.56;79.59
75697;BME280;64312;44.738;20.612;2022-11-03T07:11:58;101174.91;;;12.55;79.39
75697;BME280;64312;44.738;20.612;2022-11-03T07:14:29;101173.53;;;12.59;79.86
75697;BME280;64312;44.738;20.612;2022-11-03T07:17:02;101176.22;;;12.59;79.75
75697;BME280;64312;44.738;20.612;2022-11-03T07:19:32;101168.31;;;12.58;79.82
75697;BME280;64312;44.738;20.612;2022-11-03T07:22:01;101177.56;;;12.63;79.66
75697;BME280;64312;44.738;20.612;2022-11-03T07:24:33;101178.41;;;12.64;79.58
75697;BME280;64312;44.738;20.612;2022-11-03T07:27:24;101173.63;;;12.66;79.42
75697;BME280;64312;44.738;20.612;2022-11-03T07:29:53;101172.59;;;12.67;79.51
75697;BME280;64312;44.738;20.612;2022-11-03T07:32:25;101177.66;;;12.70;79.16
75697;BME280;64312;44.738;20.612;2022-11-03T07:35:02;101168.72;;;12.69;79.02
75697;BME280;64312;44.738;20.612;2022-11-03T07:37:28;101165.81;;;12.71;79.06
75697;BME280;64312;44.738;20.612;2022-11-03T07:39:54;101156.69;;;12.72;78.96
75697;BME280;64312;44.738;20.612;2022-11-03T07:42:24;101154.28;;;12.77;78.86
75697;BME280;64312;44.738;20.612;2022-11-03T07:44:57;101146.16;;;12.77;78.84
75697;BME280;64312;44.738;20.612;2022-11-03T07:47:25;101150.63;;;12.85;78.48
75697;BME280;64312;44.738;20.612;2022-11-03T07:49:53;101149.41;;;12.87;78.62
75697;BME280;64312;44.738;20.612;2022-11-03T07:52:28;101141.97;;;12.89;77.99
75697;BME280;64312;44.738;20.612;2022-11-03T07:54:54;101142.63;;;12.91;77.98
75697;BME280;64312;44.738;20.612;2022-11-03T07:57:27;101152.28;;;13.00;78.42
75697;BME280;64312;44.738;20.612;2022-11-03T08:00:09;101143.63;;;13.05;77.84
75697;BME280;64312;44.738;20.612;2022-11-03T08:02:47;101139.72;;;13.08;77.69
75697;BME280;64312;44.738;20.612;2022-11-03T08:05:15;101127.22;;;13.07;77.32
75697;BME280;64312;44.738;20.612;2022-11-03T08:07:41;101134.41;;;13.14;77.67
75697;BME280;64312;44.738;20.612;2022-11-03T08:10:07;101126.75;;;13.18;76.87
75697;BME280;64312;44.738;20.612;2022-11-03T08:12:33;101124.88;;;13.18;77.04
75697;BME280;64312;44.738;20.612;2022-11-03T08:14:58;101132.25;;;13.24;77.07
75697;BME280;64312;44.738;20.612;2022-11-03T08:17:24;101120.25;;;13.27;76.92
75697;BME280;64312;44.738;20.612;2022-11-03T08:19:51;101109.59;;;13.25;77.31
75697;BME280;64312;44.738;20.612;2022-11-03T08:22:16;101124.31;;;13.38;76.72
75697;BME280;64312;44.738;20.612;2022-11-03T08:24:42;101117.03;;;13.38;76.18
75697;BME280;64312;44.738;20.612;2022-11-03T08:27:07;101112.09;;;13.42;75.90
75697;BME280;64312;44.738;20.612;2022-11-03T08:29:33;101098.75;;;13.40;75.19
75697;BME280;64312;44.738;20.612;2022-11-03T08:31:59;101102.53;;;13.46;75.21
75697;BME280;64312;44.738;20.612;2022-11-03T08:34:25;101112.34;;;13.47;75.03
75697;BME280;64312;44.738;20.612;2022-11-03T08:36:50;101099.47;;;13.49;74.94
75697;BME280;64312;44.738;20.612;2022-11-03T08:39:16;101097.22;;;13.52;74.47
75697;BME280;64312;44.738;20.612;2022-11-03T08:41:41;101106.81;;;13.55;74.69
75697;BME280;64312;44.738;20.612;2022-11-03T08:44:07;101100.00;;;13.59;74.23
75697;BME280;64312;44.738;20.612;2022-11-03T08:46:33;101097.66;;;13.56;73.73
75697;BME280;64312;44.738;20.612;2022-11-03T08:48:58;101101.47;;;13.62;73.55
75697;BME280;64312;44.738;20.612;2022-11-03T08:51:24;101101.34;;;13.70;73.84
75697;BME280;64312;44.738;20.612;2022-11-03T08:53:50;101097.03;;;13.75;74.24
75697;BME280;64312;44.738;20.612;2022-11-03T08:56:18;101094.78;;;13.79;73.56
75697;BME280;64312;44.738;20.612;2022-11-03T08:58:45;101097.09;;;13.82;73.13
75697;BME280;64312;44.738;20.612;2022-11-03T09:01:11;101092.31;;;13.84;72.98
75697;BME280;64312;44.738;20.612;2022-11-03T09:03:38;101092.13;;;13.86;73.05
75697;BME280;64312;44.738;20.612;2022-11-03T09:06:04;101085.50;;;13.88;72.95
75697;BME280;64312;44.738;20.612;2022-11-03T09:08:30;101087.81;;;13.91;72.79
75697;BME280;64312;44.738;20.612;2022-11-03T09:10:55;101086.78;;;13.92;72.74
75697;BME280;64312;44.738;20.612;2022-11-03T09:13:21;101089.28;;;13.94;72.54
75697;BME280;64312;44.738;20.612;2022-11-03T09:15:47;101080.59;;;13.98;72.14
75697;BME280;64312;44.738;20.612;2022-11-03T09:18:12;101084.97;;;13.99;72.12
75697;BME280;64312;44.738;20.612;2022-11-03T09:20:38;101082.91;;;14.01;71.81
75697;BME280;64312;44.738;20.612;2022-11-03T09:23:03;101087.72;;;14.06;71.60
75697;BME280;64312;44.738;20.612;2022-11-03T09:25:29;101072.31;;;14.06;71.94
75697;BME280;64312;44.738;20.612;2022-11-03T09:27:55;101081.13;;;14.15;71.58
75697;BME280;64312;44.738;20.612;2022-11-03T09:30:22;101076.38;;;14.17;71.19
75697;BME280;64312;44.738;20.612;2022-11-03T09:32:48;101070.53;;;14.20;70.89
75697;BME280;64312;44.738;20.612;2022-11-03T09:35:13;101071.00;;;14.24;71.33
75697;BME280;64312;44.738;20.612;2022-11-03T09:37:39;101072.25;;;14.28;70.65
75697;BME280;64312;44.738;20.612;2022-11-03T09:40:06;101066.22;;;14.26;70.46
75697;BME280;64312;44.738;20.612;2022-11-03T09:42:32;101067.88;;;14.27;70.37
75697;BME280;64312;44.738;20.612;2022-11-03T09:44:58;101063.50;;;14.26;70.82
75697;BME280;64312;44.738;20.612;2022-11-03T09:47:32;101065.19;;;14.27;70.11
75697;BME280;64312;44.738;20.612;2022-11-03T09:49:59;101057.63;;;14.22;70.70
75697;BME280;64312;44.738;20.612;2022-11-03T09:52:25;101057.88;;;14.27;70.21
75697;BME280;64312;44.738;20.612;2022-11-03T09:54:52;101062.72;;;14.32;70.22
75697;BME280;64312;44.738;20.612;2022-11-03T09:57:26;101055.41;;;14.32;70.14
75697;BME280;64312;44.738;20.612;2022-11-03T09:59:53;101056.25;;;14.33;70.52
75697;BME280;64312;44.738;20.612;2022-11-03T10:04:47;101057.53;;;14.37;70.43
75697;BME280;64312;44.738;20.612;2022-11-03T10:07:13;101055.84;;;14.36;70.24
75697;BME280;64312;44.738;20.612;2022-11-03T10:09:44;101050.84;;;14.33;70.02
75697;BME280;64312;44.738;20.612;2022-11-03T10:12:11;101057.94;;;14.34;70.04
75697;BME280;64312;44.738;20.612;2022-11-03T10:14:37;101045.41;;;14.33;70.85
75697;BME280;64312;44.738;20.612;2022-11-03T10:17:03;101045.22;;;14.34;70.44
75697;BME280;64312;44.738;20.612;2022-11-03T10:19:28;101043.56;;;14.33;70.80
75697;BME280;64312;44.738;20.612;2022-11-03T10:21:54;101046.25;;;14.33;70.44
75697;BME280;64312;44.738;20.612;2022-11-03T10:24:19;101036.84;;;14.29;70.06
75697;BME280;64312;44.738;20.612;2022-11-03T10:26:50;101029.97;;;14.27;69.98
75697;BME280;64312;44.738;20.612;2022-11-03T10:29:20;101027.00;;;14.22;70.76
75697;BME280;64312;44.738;20.612;2022-11-03T10:31:49;101035.59;;;14.25;70.50
75697;BME280;64312;44.738;20.612;2022-11-03T10:36:48;101035.59;;;14.25;70.65
75697;BME280;64312;44.738;20.612;2022-11-03T10:39:28;101019.94;;;14.21;70.36
75697;BME280;64312;44.738;20.612;2022-11-03T10:41:57;101025.78;;;14.24;70.01
75697;BME280;64312;44.738;20.612;2022-11-03T10:44:25;101023.25;;;14.23;70.36
75697;BME280;64312;44.738;20.612;2022-11-03T10:47:03;101018.88;;;14.22;70.63
75697;BME280;64312;44.738;20.612;2022-11-03T10:49:31;101016.84;;;14.24;70.63
75697;BME280;64312;44.738;20.612;2022-11-03T10:52:19;101010.16;;;14.26;70.49
75697;BME280;64312;44.738;20.612;2022-11-03T10:54:46;101013.72;;;14.27;70.84
75697;BME280;64312;44.738;20.612;2022-11-03T10:57:13;101013.50;;;14.28;71.04
75697;BME280;64312;44.738;20.612;2022-11-03T10:59:39;100998.50;;;14.26;70.75
75697;BME280;64312;44.738;20.612;2022-11-03T11:02:18;100994.13;;;14.25;70.65
75697;BME280;64312;44.738;20.612;2022-11-03T11:04:46;100993.91;;;14.26;70.90
75697;BME280;64312;44.738;20.612;2022-11-03T11:07:19;100985.34;;;14.23;70.84
75697;BME280;64312;44.738;20.612;2022-11-03T11:09:46;100993.72;;;14.28;70.45
75697;BME280;64312;44.738;20.612;2022-11-03T11:12:19;100993.72;;;14.28;71.33
75697;BME280;64312;44.738;20.612;2022-11-03T11:14:59;100982.69;;;14.29;70.95
75697;BME280;64312;44.738;20.612;2022-11-03T11:17:43;100982.72;;;14.36;71.27
75697;BME280;64312;44.738;20.612;2022-11-03T11:22:46;100988.19;;;14.43;70.67
75697;BME280;64312;44.738;20.612;2022-11-03T11:25:12;100985.06;;;14.46;71.08
75697;BME280;64312;44.738;20.612;2022-11-03T11:30:05;100972.63;;;14.51;70.21
75697;BME280;64312;44.738;20.612;2022-11-03T11:35:08;100967.44;;;14.56;70.42
75697;BME280;64312;44.738;20.612;2022-11-03T11:37:35;100960.31;;;14.55;70.43
75697;BME280;64312;44.738;20.612;2022-11-03T11:40:09;100954.28;;;14.53;70.51
75697;BME280;64312;44.738;20.612;2022-11-03T11:48:27;100949.91;;;14.52;69.79
75697;BME280;64312;44.738;20.612;2022-11-03T11:50:56;100943.97;;;14.42;70.28
75697;BME280;64312;44.738;20.612;2022-11-03T11:53:23;100944.19;;;14.41;70.12
75697;BME280;64312;44.738;20.612;2022-11-03T11:55:57;100941.69;;;14.39;70.70
75697;BME280;64312;44.738;20.612;2022-11-03T12:00:56;100922.72;;;14.32;70.71
75697;BME280;64312;44.738;20.612;2022-11-03T12:03:29;100920.22;;;14.31;70.96
75697;BME280;64312;44.738;20.612;2022-11-03T12:05:55;100919.16;;;14.32;70.28
75697;BME280;64312;44.738;20.612;2022-11-03T12:08:26;100919.59;;;14.42;70.19
75697;BME280;64312;44.738;20.612;2022-11-03T12:11:02;100926.78;;;14.50;70.66
75697;BME280;64312;44.738;20.612;2022-11-03T12:13:44;100916.59;;;14.58;70.58
75697;BME280;64312;44.738;20.612;2022-11-03T12:16:36;100902.44;;;14.70;70.25
75697;BME280;64312;44.738;20.612;2022-11-03T12:19:35;100894.75;;;14.80;70.07
75697;BME280;64312;44.738;20.612;2022-11-03T12:26:58;100885.38;;;14.82;69.45
75697;BME280;64312;44.738;20.612;2022-11-03T12:29:24;100879.53;;;14.85;69.21
75697;BME280;64312;44.738;20.612;2022-11-03T12:31:49;100878.72;;;14.98;69.13
75697;BME280;64312;44.738;20.612;2022-11-03T12:34:15;100869.97;;;15.03;69.23
75697;BME280;64312;44.738;20.612;2022-11-03T12:36:42;100867.25;;;15.03;69.33
75697;BME280;64312;44.738;20.612;2022-11-03T12:39:08;100861.63;;;15.04;68.81
75697;BME280;64312;44.738;20.612;2022-11-03T12:41:34;100863.28;;;15.05;68.19
75697;BME280;64312;44.738;20.612;2022-11-03T12:43:59;100859.34;;;15.08;68.26
75697;BME280;64312;44.738;20.612;2022-11-03T12:46:25;100856.41;;;15.16;68.39
75697;BME280;64312;44.738;20.612;2022-11-03T12:48:51;100850.97;;;15.23;68.24
75697;BME280;64312;44.738;20.612;2022-11-03T12:51:19;100848.47;;;15.28;68.19
75697;BME280;64312;44.738;20.612;2022-11-03T12:53:45;100840.75;;;15.25;67.54
75697;BME280;64312;44.738;20.612;2022-11-03T12:56:13;100838.88;;;15.25;67.42
75697;BME280;64312;44.738;20.612;2022-11-03T12:58:38;100837.63;;;15.21;67.31
75697;BME280;64312;44.738;20.612;2022-11-03T13:01:05;100833.03;;;15.22;67.29
75697;BME280;64312;44.738;20.612;2022-11-03T13:03:31;100825.97;;;15.21;67.38
75697;BME280;64312;44.738;20.612;2022-11-03T13:05:59;100830.13;;;15.23;67.20
75697;BME280;64312;44.738;20.612;2022-11-03T13:08:25;100819.28;;;15.23;67.31
75697;BME280;64312;44.738;20.612;2022-11-03T13:10:52;100811.34;;;15.22;66.62
75697;BME280;64312;44.738;20.612;2022-11-03T13:13:18;100808.84;;;15.20;67.17
75697;BME280;64312;44.738;20.612;2022-11-03T13:15:44;100797.78;;;15.22;66.93
75697;BME280;64312;44.738;20.612;2022-11-03T13:18:10;100794.25;;;15.21;66.98
75697;BME280;64312;44.738;20.612;2022-11-03T13:20:35;100791.31;;;15.23;67.21
75697;BME280;64312;44.738;20.612;2022-11-03T13:23:02;100780.47;;;15.23;66.96
75697;BME280;64312;44.738;20.612;2022-11-03T13:25:28;100774.81;;;15.24;67.27
75697;BME280;64312;44.738;20.612;2022-11-03T13:27:54;100782.34;;;15.29;66.84
75697;BME280;64312;44.738;20.612;2022-11-03T13:30:23;100770.44;;;15.30;66.94
75697;BME280;64312;44.738;20.612;2022-11-03T13:32:49;100765.00;;;15.30;66.76
75697;BME280;64312;44.738;20.612;2022-11-03T13:35:15;100764.59;;;15.33;66.87
75697;BME280;64312;44.738;20.612;2022-11-03T13:37:41;100754.78;;;15.32;66.33
75697;BME280;64312;44.738;20.612;2022-11-03T13:40:09;100765.00;;;15.36;66.70
75697;BME280;64312;44.738;20.612;2022-11-03T13:42:34;100767.91;;;15.35;66.28
75697;BME280;64312;44.738;20.612;2022-11-03T13:45:00;100750.00;;;15.34;66.42
75697;BME280;64312;44.738;20.612;2022-11-03T13:47:25;100746.22;;;15.35;66.56
75697;BME280;64312;44.738;20.612;2022-11-03T13:49:51;100751.22;;;15.38;66.66
75697;BME280;64312;44.738;20.612;2022-11-03T13:52:17;100736.19;;;15.35;66.50
75697;BME280;64312;44.738;20.612;2022-11-03T13:54:44;100751.84;;;15.40;66.67
75697;BME280;64312;44.738;20.612;2022-11-03T13:57:10;100741.19;;;15.38;66.33